Lake Station, IN (46405)

2:34 AM CDT on August 28, 2015 (GMT -0500)
Lake Dombey | | Change Station
CLOSE
Current Station
Personal Weather Station
Location: Portage, IN
Elevation: 640 ft
Nearby Weather Stations

Elev 640 ft 41.58 °N, 87.21 °W | Updated 8 seconds ago

Clear
Clear
56.9 °F
Feels Like 56.9 °F
N
0.0
Wind Variable Wind from North
Gusts 0.0 mph

Today
High -- | Low -- °F
--% Chance of Precip.
Yesterday
High -- | Low -- °F
Precip. -- in
6:10 AM 7:29 PM
Waxing Gibbous, 97% visible
Pressure 30.13 in
Visibility 7.0 miles
Clouds Clear
Dew Point 53 °F
Humidity 87%
Rainfall 0.00 in
Snow Depth Not available.
UV 0 out of 12
Pollen 9.00 out of 12
Air Quality Not available.
Flu Activity Not available.
METAR KGYY 280715Z AUTO 13004KT 7SM CLR 15/13 A3013 RMK AO2 T01460133
Pressure 30.13 in
Visibility 7.0 miles
Clouds Clear
Dew Point 53 °F
Humidity 87%
Rainfall 0.00 in
Snow Depth Not available.
UV 0 out of 12
Pollen 9.00 out of 12
Air Quality Not available.
Flu Activity Not available.
METAR KGYY 280715Z AUTO 13004KT 7SM CLR 15/13 A3013 RMK AO2 T01460133

10-Day Weather Forecast

×

Almanac

Astronomy

Aug. 28, 2015 Rise Set
Actual Time
Civil Twilight
Nautical Twilight
Astronomical Twilight
Moon
Length of Visible Light
Length of Day
Tomorrow will be .
, % of the Moon is Illuminated

Today's Extremes

State Highs State Lows

Community

WunderPhotos

Upload Photos

1,850,344 photos uploaded!

WunderBlogs® & News

Nearby

Air Quality

  Air Quality AQ Index Pollutant
Not available.

Snow Depth

Station Depth Elevation

Earthquake Activity

City Distance Mag. Time & Date
Minimum magnitude displayed is 2.5.

Coastal Water Temperatures

Place Temperature

Stations

Nearby Weather Stations

Station Location Temp. Windchill Dew Point Humidity Wind Precip. Elev Updated Type